createdAt,value
2022-12-23T00:02:41.303Z,4.68
2022-12-23T00:05:43.452Z,4.73
2022-12-23T00:08:46.773Z,4.66
2022-12-23T00:12:12.259Z,4.89
2022-12-23T00:15:14.882Z,4.83
2022-12-23T00:18:19.876Z,4.87
2022-12-23T00:21:22.944Z,4.87
2022-12-23T00:24:25.129Z,4.88
2022-12-23T00:27:27.108Z,4.93
2022-12-23T00:30:29.079Z,4.94
2022-12-23T00:33:40.251Z,4.92
2022-12-23T00:36:42.365Z,4.85
2022-12-23T00:40:06.753Z,4.82
2022-12-23T00:43:08.991Z,4.71
2022-12-23T00:46:10.997Z,4.79
2022-12-23T00:49:36.414Z,4.78
2022-12-23T00:52:38.656Z,4.74
2022-12-23T00:55:40.600Z,4.83
2022-12-23T00:58:42.603Z,4.93
2022-12-23T01:02:03.324Z,4.83
2022-12-23T01:05:24.325Z,4.85
2022-12-23T01:08:27.215Z,4.91
2022-12-23T01:11:29.367Z,4.95
2022-12-23T01:14:32.289Z,4.94
2022-12-23T01:17:34.397Z,4.85
2022-12-23T01:20:39.665Z,4.92
2022-12-23T01:23:41.641Z,4.93
2022-12-23T01:26:43.772Z,4.94
2022-12-23T01:29:46.528Z,4.95
2022-12-23T01:32:50.901Z,4.98
2022-12-23T01:35:59.170Z,4.95
2022-12-23T01:39:01.187Z,4.76
2022-12-23T01:42:21.902Z,4.83
2022-12-23T01:45:33.797Z,4.78
2022-12-23T01:48:36.407Z,4.81
2022-12-23T01:51:38.590Z,4.75
2022-12-23T01:54:43.091Z,4.77
2022-12-23T01:57:46.477Z,4.73
2022-12-23T02:01:07.823Z,4.59
2022-12-23T02:04:14.091Z,4.60
2022-12-23T02:07:36.449Z,4.40
2022-12-23T02:11:27.695Z,4.38
2022-12-23T02:15:07.208Z,4.41
2022-12-23T02:18:21.853Z,4.40
2022-12-23T02:21:40.026Z,4.41
2022-12-23T02:25:01.531Z,4.31
2022-12-23T02:28:36.474Z,4.27
2022-12-23T02:31:44.061Z,4.22
2022-12-23T02:35:01.675Z,4.16
2022-12-23T02:38:11.156Z,4.12
2022-12-23T02:41:19.167Z,4.26
2022-12-23T02:44:39.942Z,4.17
2022-12-23T02:47:49.863Z,4.10
2022-12-23T02:50:55.221Z,4.18
2022-12-23T02:54:01.325Z,4.48
2022-12-23T02:57:06.542Z,4.38
2022-12-23T03:00:09.983Z,4.17
2022-12-23T03:03:12.995Z,4.18
2022-12-23T03:06:23.351Z,4.26
2022-12-23T03:09:59.877Z,4.32
2022-12-23T03:13:40.610Z,4.38
2022-12-23T03:16:42.569Z,4.26
2022-12-23T03:20:22.063Z,4.16
2022-12-23T03:23:29.872Z,4.14
2022-12-23T03:26:45.538Z,4.13
2022-12-23T03:29:58.022Z,4.12
2022-12-23T03:33:06.399Z,4.24
2022-12-23T03:36:18.684Z,4.19
2022-12-23T03:39:26.464Z,4.23
2022-12-23T03:42:35.280Z,4.06
2022-12-23T03:45:47.549Z,4.06
2022-12-23T03:48:54.209Z,4.12
2022-12-23T03:52:21.176Z,4.15
2022-12-23T03:55:45.564Z,4.12
2022-12-23T03:58:53.674Z,3.98
2022-12-23T04:02:28.085Z,4.01
2022-12-23T04:05:35.620Z,4.20
2022-12-23T04:08:38.829Z,4.10
2022-12-23T04:11:41.268Z,4.06
2022-12-23T04:14:50.266Z,4.14
2022-12-23T04:17:53.763Z,4.14
2022-12-23T04:20:59.642Z,4.10
2022-12-23T04:24:01.732Z,4.07
2022-12-23T04:27:03.633Z,4.19
2022-12-23T04:30:06.920Z,3.92
2022-12-23T04:33:11.527Z,3.92
2022-12-23T04:36:13.625Z,3.99
2022-12-23T04:39:15.819Z,4.05
2022-12-23T04:42:17.998Z,4.06
2022-12-23T04:45:19.938Z,4.04
2022-12-23T04:48:22.054Z,3.95
2022-12-23T04:51:24.109Z,3.98
2022-12-23T04:54:26.224Z,3.90
2022-12-23T04:57:28.159Z,3.91
2022-12-23T05:00:39.107Z,3.84
2022-12-23T05:03:42.847Z,3.73
2022-12-23T05:06:45.085Z,3.70
2022-12-23T05:09:47.430Z,3.72
2022-12-23T05:12:49.319Z,3.70
2022-12-23T05:15:53.324Z,3.79
2022-12-23T05:18:55.438Z,3.50
2022-12-23T05:21:57.331Z,3.58
2022-12-23T05:24:59.430Z,3.67
2022-12-23T05:28:01.672Z,3.65
2022-12-23T05:31:09.123Z,3.69
2022-12-23T05:34:11.211Z,3.74
2022-12-23T05:37:13.410Z,3.81
2022-12-23T05:40:24.067Z,3.63
2022-12-23T05:43:30.632Z,3.68
2022-12-23T05:46:32.744Z,3.61
2022-12-23T05:49:35.175Z,3.71
2022-12-23T05:52:37.772Z,3.59
2022-12-23T05:55:39.890Z,3.72
2022-12-23T05:58:41.944Z,3.61
2022-12-23T06:01:44.063Z,3.55
2022-12-23T06:04:46.099Z,3.57
2022-12-23T06:07:48.129Z,3.59
2022-12-23T06:10:54.234Z,3.47
2022-12-23T06:13:56.292Z,3.54
2022-12-23T06:16:58.687Z,3.42
2022-12-23T06:20:01.170Z,3.43
2022-12-23T06:23:03.222Z,3.35
2022-12-23T06:26:05.375Z,3.30
2022-12-23T06:29:07.453Z,3.31
2022-12-23T06:32:10.457Z,3.19
2022-12-23T06:35:13.464Z,3.16
2022-12-23T06:38:15.868Z,3.21
2022-12-23T06:41:19.012Z,3.32
2022-12-23T06:44:21.370Z,3.25
2022-12-23T06:47:23.516Z,3.31
2022-12-23T06:50:25.960Z,3.31
2022-12-23T06:53:28.611Z,3.31
2022-12-23T06:56:30.594Z,3.34
2022-12-23T06:59:32.745Z,3.23
2022-12-23T07:02:35.354Z,3.13
2022-12-23T07:05:37.902Z,3.26
2022-12-23T07:08:40.487Z,3.33
2022-12-23T07:11:42.395Z,3.22
2022-12-23T07:14:44.524Z,3.13
2022-12-23T07:17:46.568Z,3.07
2022-12-23T07:20:49.574Z,2.94
2022-12-23T07:23:52.009Z,3.01
2022-12-23T07:26:56.135Z,3.07
2022-12-23T07:29:58.259Z,3.17
2022-12-23T07:33:00.345Z,3.33
2022-12-23T07:36:03.342Z,3.33
2022-12-23T07:39:05.533Z,3.25
2022-12-23T07:45:30.544Z,3.44
2022-12-23T07:48:32.557Z,3.53
2022-12-23T07:51:34.613Z,3.45
2022-12-23T07:54:37.209Z,3.35
2022-12-23T07:57:40.078Z,3.29
2022-12-23T08:00:45.264Z,3.28
2022-12-23T08:03:47.684Z,3.39
2022-12-23T08:06:49.835Z,3.27
2022-12-23T08:09:52.248Z,3.18
2022-12-23T08:12:54.707Z,3.19
2022-12-23T08:15:58.822Z,3.45
2022-12-23T08:19:01.096Z,3.44
2022-12-23T08:22:07.863Z,3.42
2022-12-23T08:25:10.286Z,3.32
2022-12-23T08:28:12.247Z,3.25
2022-12-23T08:31:29.121Z,3.33
2022-12-23T08:34:31.410Z,3.22
2022-12-23T08:37:33.572Z,3.32
2022-12-23T08:40:40.938Z,3.41
2022-12-23T08:43:43.664Z,3.48
2022-12-23T08:46:45.798Z,3.40
2022-12-23T08:49:48.599Z,3.37
2022-12-23T08:52:50.646Z,3.18
2022-12-23T08:55:52.646Z,3.33
2022-12-23T08:58:55.777Z,3.30
2022-12-23T09:01:59.893Z,3.27
2022-12-23T09:05:02.033Z,3.23
2022-12-23T09:08:04.085Z,3.29
2022-12-23T09:11:11.952Z,3.47
2022-12-23T09:14:14.001Z,3.52
2022-12-23T09:17:17.934Z,3.41
2022-12-23T09:20:21.155Z,3.40
2022-12-23T09:23:23.326Z,3.36
2022-12-23T09:26:30.342Z,3.25
2022-12-23T09:29:32.658Z,3.25
2022-12-23T09:32:35.110Z,3.51
2022-12-23T09:35:37.767Z,3.48
2022-12-23T09:38:41.370Z,3.44
2022-12-23T09:42:05.210Z,3.41
2022-12-23T09:45:13.509Z,3.57
2022-12-23T09:48:20.051Z,3.38
2022-12-23T09:51:23.755Z,3.25
2022-12-23T09:54:33.218Z,3.29
2022-12-23T09:58:01.656Z,3.49
2022-12-23T10:01:14.882Z,3.63
2022-12-23T10:04:23.758Z,3.43
2022-12-23T10:07:35.966Z,3.42
2022-12-23T10:10:43.962Z,3.42
2022-12-23T10:13:50.515Z,3.38
2022-12-23T10:17:15.223Z,3.33
2022-12-23T10:20:28.636Z,3.36
2022-12-23T10:23:36.564Z,3.41
2022-12-23T10:26:48.965Z,3.46
2022-12-23T10:29:51.605Z,3.52
2022-12-23T10:33:21.000Z,3.52
2022-12-23T10:36:35.412Z,3.49
2022-12-23T10:39:46.374Z,3.51
2022-12-23T10:43:03.472Z,3.44
2022-12-23T10:46:16.068Z,3.55
2022-12-23T10:49:36.431Z,3.58
2022-12-23T10:52:43.125Z,3.55
2022-12-23T10:55:45.515Z,3.72
2022-12-23T10:58:53.085Z,3.87
2022-12-23T11:02:05.833Z,3.93
2022-12-23T11:05:15.682Z,3.92
2022-12-23T11:08:20.498Z,3.98
2022-12-23T11:11:22.498Z,3.80
2022-12-23T11:14:53.499Z,3.58
2022-12-23T11:18:11.562Z,3.62
2022-12-23T11:21:15.368Z,3.66
2022-12-23T11:24:20.320Z,3.81
2022-12-23T11:27:22.267Z,3.84
2022-12-23T11:30:25.305Z,3.81
2022-12-23T11:33:31.391Z,3.77
2022-12-23T11:36:35.037Z,3.73
2022-12-23T11:39:37.949Z,3.83
2022-12-23T11:42:41.491Z,3.97
2022-12-23T11:45:43.763Z,3.99
2022-12-23T11:48:51.333Z,4.14
2022-12-23T11:52:05.797Z,3.77
2022-12-23T11:55:24.304Z,3.98
2022-12-23T11:58:28.955Z,3.81
2022-12-23T12:01:31.765Z,4.11
2022-12-23T12:04:35.829Z,4.18
2022-12-23T12:07:43.238Z,4.16
2022-12-23T12:10:45.305Z,4.27
2022-12-23T12:13:59.156Z,4.22
2022-12-23T12:17:12.825Z,4.13
2022-12-23T12:20:29.060Z,4.24
2022-12-23T12:23:40.187Z,4.18
2022-12-23T12:26:47.157Z,4.25
2022-12-23T12:29:54.440Z,4.15
2022-12-23T12:32:59.878Z,3.95
2022-12-23T12:36:40.866Z,4.17
2022-12-23T12:39:50.012Z,4.11
2022-12-23T12:43:00.105Z,4.26
2022-12-23T12:46:31.419Z,4.39
2022-12-23T12:50:06.772Z,4.26
2022-12-23T12:53:17.431Z,4.34
2022-12-23T12:56:45.499Z,4.42
2022-12-23T12:59:50.882Z,4.53
2022-12-23T13:02:55.951Z,4.65
2022-12-23T13:06:17.195Z,4.61
2022-12-23T13:09:51.402Z,4.55
2022-12-23T13:13:15.458Z,4.51
2022-12-23T13:16:34.917Z,4.49
2022-12-23T13:19:56.758Z,4.44
2022-12-23T13:23:43.076Z,4.41
2022-12-23T13:27:25.510Z,4.59
2022-12-23T13:30:34.320Z,4.43
2022-12-23T13:34:02.366Z,4.41
2022-12-23T13:37:18.030Z,4.46
2022-12-23T13:40:29.763Z,4.43
2022-12-23T13:43:46.339Z,4.43
2022-12-23T13:47:06.932Z,4.59
2022-12-23T13:50:18.153Z,4.49
2022-12-23T13:53:27.022Z,4.39
2022-12-23T13:56:54.150Z,4.55
2022-12-23T14:00:05.387Z,4.51
2022-12-23T14:03:12.847Z,4.49
2022-12-23T14:06:36.808Z,4.50
2022-12-23T14:09:39.451Z,4.39
2022-12-23T14:12:43.197Z,4.45
2022-12-23T14:15:57.815Z,4.41
2022-12-23T14:18:59.981Z,4.57
2022-12-23T14:22:23.242Z,4.66
2022-12-23T14:25:56.128Z,4.84
2022-12-23T14:29:11.227Z,4.89
2022-12-23T14:32:46.378Z,4.87
2022-12-23T14:35:48.515Z,4.82
2022-12-23T14:39:30.761Z,4.90
2022-12-23T14:42:41.548Z,4.84
2022-12-23T14:45:44.226Z,4.83
2022-12-23T14:48:46.074Z,4.85
2022-12-23T14:51:51.391Z,4.95
2022-12-23T14:55:20.994Z,5.01
2022-12-23T14:58:18.825Z,4.72
2022-12-23T15:01:41.890Z,4.98
2022-12-23T15:04:53.259Z,5.08
2022-12-23T15:07:57.080Z,5.11
2022-12-23T15:11:00.245Z,4.94
2022-12-23T15:14:11.237Z,4.89
2022-12-23T15:17:31.409Z,5.04
2022-12-23T15:20:35.413Z,4.95
2022-12-23T15:23:37.674Z,4.78
2022-12-23T15:26:51.856Z,4.88
2022-12-23T15:30:02.624Z,4.99
2022-12-23T15:33:34.729Z,4.81
2022-12-23T15:36:35.768Z,4.58
2022-12-23T15:39:41.122Z,4.77
2022-12-23T15:42:48.647Z,4.72
2022-12-23T15:45:51.218Z,4.76
2022-12-23T15:48:53.407Z,4.49
2022-12-23T15:52:11.133Z,4.55
2022-12-23T15:55:26.165Z,4.63
2022-12-23T15:58:32.511Z,4.44
2022-12-23T16:01:41.081Z,4.42
2022-12-23T16:04:54.931Z,4.61
2022-12-23T16:08:14.119Z,4.78
2022-12-23T16:11:20.823Z,4.85
2022-12-23T16:14:32.476Z,4.69
2022-12-23T16:17:36.452Z,4.74
2022-12-23T16:20:56.670Z,4.85
2022-12-23T16:23:59.977Z,4.91
2022-12-23T16:27:01.905Z,4.77
2022-12-23T16:30:11.800Z,4.84
2022-12-23T16:33:40.055Z,5.01
2022-12-23T16:36:42.271Z,5.02
2022-12-23T16:39:44.352Z,4.97
2022-12-23T16:42:46.435Z,4.85
2022-12-23T16:45:53.267Z,4.94
2022-12-23T16:48:58.826Z,4.93
2022-12-23T16:52:01.160Z,4.89
2022-12-23T16:55:03.448Z,4.90
2022-12-23T16:58:05.902Z,4.99
2022-12-23T17:01:14.544Z,5.06
2022-12-23T17:04:16.828Z,4.94
2022-12-23T17:07:19.287Z,4.90
2022-12-23T17:10:27.747Z,4.91
2022-12-23T17:13:29.772Z,4.81
2022-12-23T17:16:32.528Z,4.78
2022-12-23T17:19:34.694Z,4.67
2022-12-23T17:22:38.054Z,4.85
2022-12-23T17:25:39.961Z,4.90
2022-12-23T17:28:41.958Z,4.81
2022-12-23T17:31:44.907Z,4.81
2022-12-23T17:34:47.192Z,4.65
2022-12-23T17:37:49.456Z,4.63
2022-12-23T17:40:52.097Z,4.55
2022-12-23T17:43:55.427Z,4.59
2022-12-23T17:46:58.086Z,4.64
2022-12-23T17:50:00.147Z,4.76
2022-12-23T17:53:02.177Z,4.93
2022-12-23T17:56:13.140Z,4.82
2022-12-23T17:59:15.566Z,4.83
2022-12-23T18:02:32.986Z,4.91
2022-12-23T18:05:35.875Z,4.96
2022-12-23T18:08:37.885Z,4.77
2022-12-23T18:11:44.212Z,4.82
2022-12-23T18:14:46.287Z,4.86
2022-12-23T18:17:48.535Z,4.85
2022-12-23T18:20:56.613Z,4.81
2022-12-23T18:23:59.850Z,4.87
2022-12-23T18:27:02.467Z,4.92
2022-12-23T18:30:05.175Z,4.86
2022-12-23T18:33:10.363Z,4.89
2022-12-23T18:36:30.726Z,4.86
2022-12-23T18:39:33.022Z,4.74
2022-12-23T18:42:34.971Z,4.74
2022-12-23T18:45:47.827Z,4.91
2022-12-23T18:48:57.345Z,4.72
2022-12-23T18:51:59.345Z,4.96
2022-12-23T18:55:01.450Z,4.94
2022-12-23T18:58:04.235Z,4.78
2022-12-23T19:01:06.814Z,4.51
2022-12-23T19:04:09.111Z,4.58
2022-12-23T19:07:11.550Z,4.49
2022-12-23T19:10:36.144Z,4.73
2022-12-23T19:13:38.429Z,4.51
2022-12-23T19:16:46.058Z,4.58
2022-12-23T19:19:51.437Z,4.70
2022-12-23T19:22:53.379Z,4.64
2022-12-23T19:25:55.786Z,4.86
2022-12-23T19:28:58.109Z,4.62
2022-12-23T19:32:00.508Z,4.62
2022-12-23T19:35:02.895Z,4.73
2022-12-23T19:38:06.456Z,4.60
2022-12-23T19:41:10.604Z,4.67
2022-12-23T19:44:12.752Z,4.77
2022-12-23T19:47:15.008Z,4.58
2022-12-23T19:50:20.133Z,4.69
2022-12-23T19:53:22.688Z,4.80
2022-12-23T19:56:25.197Z,4.74
2022-12-23T19:59:27.325Z,4.59
2022-12-23T20:02:30.281Z,4.75
2022-12-23T20:05:32.353Z,4.78
2022-12-23T20:08:34.928Z,4.89
2022-12-23T20:11:39.921Z,4.95
2022-12-23T20:14:41.911Z,4.88
2022-12-23T20:17:43.742Z,4.69
2022-12-23T20:20:46.975Z,4.67
2022-12-23T20:23:49.586Z,4.65
2022-12-23T20:26:52.297Z,4.72
2022-12-23T20:29:54.674Z,4.83
2022-12-23T20:32:57.497Z,4.66
2022-12-23T20:36:00.496Z,4.72
2022-12-23T20:39:03.999Z,4.80
2022-12-23T20:42:06.477Z,4.90
2022-12-23T20:45:09.227Z,5.01
2022-12-23T20:48:11.275Z,5.09
2022-12-23T20:51:20.096Z,5.04
2022-12-23T20:54:27.876Z,5.06
2022-12-23T20:57:36.212Z,5.03
2022-12-23T21:00:38.720Z,5.16
2022-12-23T21:03:41.459Z,4.89
2022-12-23T21:06:44.303Z,4.73
2022-12-23T21:09:46.407Z,4.66
2022-12-23T21:12:48.579Z,4.61
2022-12-23T21:15:51.255Z,4.73
2022-12-23T21:18:53.607Z,4.74
2022-12-23T21:21:57.166Z,4.67
2022-12-23T21:24:59.449Z,4.70
2022-12-23T21:28:01.783Z,4.69
2022-12-23T21:31:07.344Z,4.68
2022-12-23T21:34:11.020Z,4.42
2022-12-23T21:37:13.187Z,4.44
2022-12-23T21:40:15.926Z,4.28
2022-12-23T21:43:18.224Z,4.29
2022-12-23T21:46:22.108Z,4.29
2022-12-23T21:49:24.121Z,4.21
2022-12-23T21:52:26.204Z,4.35
2022-12-23T21:55:28.565Z,4.34
2022-12-23T21:58:30.793Z,4.26
2022-12-23T22:01:36.419Z,4.40
2022-12-23T22:04:39.397Z,4.53
2022-12-23T22:07:41.376Z,4.65
2022-12-23T22:10:51.240Z,4.62
2022-12-23T22:13:55.201Z,4.65
2022-12-23T22:16:57.420Z,4.67
2022-12-23T22:19:59.502Z,4.59
2022-12-23T22:23:02.273Z,4.43
2022-12-23T22:26:05.715Z,4.43
2022-12-23T22:29:08.199Z,4.53
2022-12-23T22:32:10.291Z,4.68
2022-12-23T22:35:12.532Z,4.68
2022-12-23T22:38:14.685Z,4.62
2022-12-23T22:41:16.889Z,4.61
2022-12-23T22:44:20.038Z,4.70
2022-12-23T22:47:22.021Z,4.91
2022-12-23T22:50:25.037Z,4.80
2022-12-23T22:53:29.847Z,4.66
2022-12-23T22:56:32.164Z,4.57
2022-12-23T22:59:34.267Z,4.64
2022-12-23T23:02:36.326Z,4.89
2022-12-23T23:05:38.948Z,4.76
2022-12-23T23:08:47.709Z,4.92
2022-12-23T23:11:51.737Z,4.71
2022-12-23T23:14:53.853Z,4.92
2022-12-23T23:18:00.848Z,5.02
2022-12-23T23:21:02.999Z,4.65
2022-12-23T23:24:05.771Z,4.54
2022-12-23T23:27:07.979Z,4.70
2022-12-23T23:30:12.224Z,4.96
2022-12-23T23:33:14.369Z,4.88
2022-12-23T23:36:16.379Z,5.04
2022-12-23T23:39:18.787Z,5.10
2022-12-23T23:42:21.667Z,5.16
2022-12-23T23:45:23.918Z,5.19
2022-12-23T23:48:25.864Z,5.09
2022-12-23T23:51:27.898Z,5.07
2022-12-23T23:54:29.868Z,5.05
2022-12-23T23:57:32.215Z,4.83
